sensor_id;sensor_type;location;lat;lon;timestamp;pressure;altitude;pressure_sealevel;temperature;humidity
19596;BME280;9945;46.010;8.946;2022-12-07T00:00:45;97039.97;;;6.06;80.17
19596;BME280;9945;46.010;8.946;2022-12-07T00:03:12;97042.00;;;6.03;79.94
19596;BME280;9945;46.010;8.946;2022-12-07T00:05:39;97041.03;;;6.04;80.29
19596;BME280;9945;46.010;8.946;2022-12-07T00:08:05;97039.53;;;6.01;80.60
19596;BME280;9945;46.010;8.946;2022-12-07T00:10:34;97038.22;;;5.96;80.79
19596;BME280;9945;46.010;8.946;2022-12-07T00:13:01;97037.66;;;5.92;81.71
19596;BME280;9945;46.010;8.946;2022-12-07T00:15:28;97034.13;;;5.93;80.72
19596;BME280;9945;46.010;8.946;2022-12-07T00:17:55;97029.28;;;5.89;81.24
19596;BME280;9945;46.010;8.946;2022-12-07T00:20:22;97029.16;;;5.90;81.21
19596;BME280;9945;46.010;8.946;2022-12-07T00:22:49;97030.22;;;5.88;81.59
19596;BME280;9945;46.010;8.946;2022-12-07T00:25:16;97028.34;;;5.90;80.66
19596;BME280;9945;46.010;8.946;2022-12-07T00:27:44;97020.91;;;5.85;81.01
19596;BME280;9945;46.010;8.946;2022-12-07T00:30:12;97016.06;;;5.81;81.29
19596;BME280;9945;46.010;8.946;2022-12-07T00:32:38;97014.41;;;5.80;81.43
19596;BME280;9945;46.010;8.946;2022-12-07T00:35:06;97015.22;;;5.80;81.88
19596;BME280;9945;46.010;8.946;2022-12-07T00:37:33;97014.06;;;5.84;81.93
19596;BME280;9945;46.010;8.946;2022-12-07T00:39:59;97006.00;;;5.87;81.87
19596;BME280;9945;46.010;8.946;2022-12-07T00:42:26;96998.59;;;5.94;81.14
19596;BME280;9945;46.010;8.946;2022-12-07T00:44:55;96997.47;;;5.96;81.06
19596;BME280;9945;46.010;8.946;2022-12-07T00:47:21;97000.09;;;5.96;80.32
19596;BME280;9945;46.010;8.946;2022-12-07T00:49:48;96995.88;;;5.95;80.29
19596;BME280;9945;46.010;8.946;2022-12-07T00:52:15;96999.41;;;5.94;80.35
19596;BME280;9945;46.010;8.946;2022-12-07T00:54:42;96991.25;;;5.88;80.05
19596;BME280;9945;46.010;8.946;2022-12-07T00:57:10;96996.69;;;5.85;80.54
19596;BME280;9945;46.010;8.946;2022-12-07T00:59:37;96998.00;;;5.79;80.73
19596;BME280;9945;46.010;8.946;2022-12-07T01:02:05;96987.28;;;5.72;81.31
19596;BME280;9945;46.010;8.946;2022-12-07T01:04:33;96996.00;;;5.71;81.92
19596;BME280;9945;46.010;8.946;2022-12-07T01:07:00;96998.72;;;5.70;81.73
19596;BME280;9945;46.010;8.946;2022-12-07T01:09:27;97003.13;;;5.69;81.76
19596;BME280;9945;46.010;8.946;2022-12-07T01:11:54;97004.41;;;5.64;81.62
19596;BME280;9945;46.010;8.946;2022-12-07T01:14:21;97004.81;;;5.59;82.50
19596;BME280;9945;46.010;8.946;2022-12-07T01:16:48;96994.66;;;5.56;82.26
19596;BME280;9945;46.010;8.946;2022-12-07T01:19:16;96995.03;;;5.52;82.89
19596;BME280;9945;46.010;8.946;2022-12-07T01:21:43;96999.13;;;5.54;82.90
19596;BME280;9945;46.010;8.946;2022-12-07T01:24:10;96996.91;;;5.61;82.75
19596;BME280;9945;46.010;8.946;2022-12-07T01:26:37;96990.50;;;5.65;82.30
19596;BME280;9945;46.010;8.946;2022-12-07T01:29:04;97001.31;;;5.70;81.79
19596;BME280;9945;46.010;8.946;2022-12-07T01:31:31;97000.25;;;5.72;81.53
19596;BME280;9945;46.010;8.946;2022-12-07T01:33:59;96999.56;;;5.70;82.05
19596;BME280;9945;46.010;8.946;2022-12-07T01:36:29;96995.91;;;5.73;81.41
19596;BME280;9945;46.010;8.946;2022-12-07T01:38:57;97007.63;;;5.67;81.63
19596;BME280;9945;46.010;8.946;2022-12-07T01:41:27;96995.25;;;5.60;82.25
19596;BME280;9945;46.010;8.946;2022-12-07T01:44:13;96990.16;;;5.58;82.48
19596;BME280;9945;46.010;8.946;2022-12-07T01:46:42;96988.75;;;5.54;81.95
19596;BME280;9945;46.010;8.946;2022-12-07T01:49:12;96991.34;;;5.54;82.53
19596;BME280;9945;46.010;8.946;2022-12-07T01:51:43;96991.94;;;5.58;82.06
19596;BME280;9945;46.010;8.946;2022-12-07T01:54:13;96988.75;;;5.54;81.99
19596;BME280;9945;46.010;8.946;2022-12-07T01:56:45;96986.41;;;5.51;82.02
19596;BME280;9945;46.010;8.946;2022-12-07T01:59:14;96990.06;;;5.49;82.87
19596;BME280;9945;46.010;8.946;2022-12-07T02:01:42;96984.06;;;5.48;82.13
19596;BME280;9945;46.010;8.946;2022-12-07T02:04:10;96984.28;;;5.45;82.09
19596;BME280;9945;46.010;8.946;2022-12-07T02:06:38;96988.91;;;5.42;82.78
19596;BME280;9945;46.010;8.946;2022-12-07T02:09:06;96984.66;;;5.41;83.64
19596;BME280;9945;46.010;8.946;2022-12-07T02:11:33;96983.47;;;5.45;83.67
19596;BME280;9945;46.010;8.946;2022-12-07T02:14:00;96981.84;;;5.44;82.94
19596;BME280;9945;46.010;8.946;2022-12-07T02:16:33;96974.78;;;5.35;83.44
19596;BME280;9945;46.010;8.946;2022-12-07T02:19:21;96973.97;;;5.34;83.57
19596;BME280;9945;46.010;8.946;2022-12-07T02:21:53;96966.84;;;5.36;83.29
19596;BME280;9945;46.010;8.946;2022-12-07T02:24:37;96965.69;;;5.29;83.92
19596;BME280;9945;46.010;8.946;2022-12-07T02:27:29;96960.75;;;5.26;84.48
19596;BME280;9945;46.010;8.946;2022-12-07T02:30:03;96956.41;;;5.26;84.29
19596;BME280;9945;46.010;8.946;2022-12-07T02:32:40;96958.78;;;5.18;84.29
19596;BME280;9945;46.010;8.946;2022-12-07T02:35:12;96953.09;;;5.24;83.01
19596;BME280;9945;46.010;8.946;2022-12-07T02:37:46;96956.19;;;5.18;83.80
19596;BME280;9945;46.010;8.946;2022-12-07T02:40:19;96961.50;;;5.17;84.57
19596;BME280;9945;46.010;8.946;2022-12-07T02:42:52;96954.97;;;5.22;83.93
19596;BME280;9945;46.010;8.946;2022-12-07T02:45:25;96954.88;;;5.24;83.52
19596;BME280;9945;46.010;8.946;2022-12-07T02:47:56;96954.88;;;5.24;83.78
19596;BME280;9945;46.010;8.946;2022-12-07T02:50:26;96954.88;;;5.24;83.36
19596;BME280;9945;46.010;8.946;2022-12-07T02:52:53;96955.91;;;5.21;84.12
19596;BME280;9945;46.010;8.946;2022-12-07T02:55:25;96957.91;;;5.29;83.64
19596;BME280;9945;46.010;8.946;2022-12-07T02:58:14;96950.25;;;5.27;83.35
19596;BME280;9945;46.010;8.946;2022-12-07T03:00:54;96952.84;;;5.27;82.92
19596;BME280;9945;46.010;8.946;2022-12-07T03:03:23;96953.22;;;5.23;83.10
19596;BME280;9945;46.010;8.946;2022-12-07T03:06:03;96947.19;;;5.22;83.62
19596;BME280;9945;46.010;8.946;2022-12-07T03:08:39;96947.31;;;5.21;84.18
19596;BME280;9945;46.010;8.946;2022-12-07T03:11:11;96942.38;;;5.18;84.59
19596;BME280;9945;46.010;8.946;2022-12-07T03:13:42;96942.38;;;5.18;83.58
19596;BME280;9945;46.010;8.946;2022-12-07T03:16:15;96944.59;;;5.22;84.05
19596;BME280;9945;46.010;8.946;2022-12-07T03:18:46;96943.88;;;5.31;83.26
19596;BME280;9945;46.010;8.946;2022-12-07T03:21:18;96946.03;;;5.26;83.50
19596;BME280;9945;46.010;8.946;2022-12-07T03:23:49;96941.06;;;5.23;83.80
19596;BME280;9945;46.010;8.946;2022-12-07T03:26:19;96946.25;;;5.23;83.85
19596;BME280;9945;46.010;8.946;2022-12-07T03:28:51;96937.75;;;5.21;84.69
19596;BME280;9945;46.010;8.946;2022-12-07T03:31:22;96935.53;;;5.17;83.84
19596;BME280;9945;46.010;8.946;2022-12-07T03:33:57;96933.78;;;5.17;84.21
19596;BME280;9945;46.010;8.946;2022-12-07T03:36:30;96930.69;;;5.12;83.87
19596;BME280;9945;46.010;8.946;2022-12-07T03:39:04;96934.34;;;5.21;83.36
19596;BME280;9945;46.010;8.946;2022-12-07T03:41:34;96928.31;;;5.20;84.64
19596;BME280;9945;46.010;8.946;2022-12-07T03:44:04;96927.06;;;5.15;83.75
19596;BME280;9945;46.010;8.946;2022-12-07T03:46:37;96935.22;;;5.10;85.08
19596;BME280;9945;46.010;8.946;2022-12-07T03:49:13;96927.44;;;5.10;84.62
19596;BME280;9945;46.010;8.946;2022-12-07T03:51:50;96929.53;;;5.05;84.50
19596;BME280;9945;46.010;8.946;2022-12-07T03:54:21;96923.31;;;4.97;85.29
19596;BME280;9945;46.010;8.946;2022-12-07T03:56:52;96922.03;;;4.91;84.91
19596;BME280;9945;46.010;8.946;2022-12-07T03:59:20;96917.56;;;4.93;85.70
19596;BME280;9945;46.010;8.946;2022-12-07T04:01:54;96916.03;;;4.90;85.43
19596;BME280;9945;46.010;8.946;2022-12-07T04:04:21;96916.72;;;4.92;84.47
19596;BME280;9945;46.010;8.946;2022-12-07T04:06:48;96909.63;;;4.94;85.15
19596;BME280;9945;46.010;8.946;2022-12-07T04:09:16;96908.47;;;4.99;85.58
19596;BME280;9945;46.010;8.946;2022-12-07T04:11:43;96904.81;;;5.01;85.54
19596;BME280;9945;46.010;8.946;2022-12-07T04:14:10;96899.63;;;5.01;85.07
19596;BME280;9945;46.010;8.946;2022-12-07T04:16:47;96889.59;;;4.97;85.95
19596;BME280;9945;46.010;8.946;2022-12-07T04:19:16;96892.31;;;4.95;86.24
19596;BME280;9945;46.010;8.946;2022-12-07T04:21:43;96896.31;;;4.99;85.13
19596;BME280;9945;46.010;8.946;2022-12-07T04:24:12;96889.81;;;4.93;86.69
19596;BME280;9945;46.010;8.946;2022-12-07T04:26:39;96888.53;;;4.99;86.04
19596;BME280;9945;46.010;8.946;2022-12-07T04:29:06;96895.38;;;5.00;85.21
19596;BME280;9945;46.010;8.946;2022-12-07T04:31:33;96887.31;;;5.03;85.71
19596;BME280;9945;46.010;8.946;2022-12-07T04:34:00;96894.44;;;5.01;85.54
19596;BME280;9945;46.010;8.946;2022-12-07T04:36:29;96891.47;;;4.94;85.31
19596;BME280;9945;46.010;8.946;2022-12-07T04:38:56;96889.13;;;4.91;86.41
19596;BME280;9945;46.010;8.946;2022-12-07T04:41:23;96883.13;;;4.91;84.70
19596;BME280;9945;46.010;8.946;2022-12-07T04:43:54;96889.25;;;4.90;85.96
19596;BME280;9945;46.010;8.946;2022-12-07T04:46:22;96888.78;;;4.85;85.23
19596;BME280;9945;46.010;8.946;2022-12-07T04:48:49;96887.50;;;4.90;85.10
19596;BME280;9945;46.010;8.946;2022-12-07T04:51:19;96888.31;;;4.91;84.72
19596;BME280;9945;46.010;8.946;2022-12-07T04:53:48;96894.06;;;4.94;84.92
19596;BME280;9945;46.010;8.946;2022-12-07T04:56:16;96899.25;;;4.94;84.35
19596;BME280;9945;46.010;8.946;2022-12-07T04:58:44;96893.25;;;4.94;84.81
19596;BME280;9945;46.010;8.946;2022-12-07T05:01:12;96899.03;;;4.98;84.00
19596;BME280;9945;46.010;8.946;2022-12-07T05:03:39;96893.72;;;4.99;84.78
19596;BME280;9945;46.010;8.946;2022-12-07T05:06:06;96898.78;;;5.01;84.09
19596;BME280;9945;46.010;8.946;2022-12-07T05:08:34;96895.50;;;4.99;83.82
19596;BME280;9945;46.010;8.946;2022-12-07T05:11:03;96898.44;;;4.94;84.60
19596;BME280;9945;46.010;8.946;2022-12-07T05:13:31;96890.44;;;4.86;84.56
19596;BME280;9945;46.010;8.946;2022-12-07T05:15:58;96893.16;;;4.84;85.08
19596;BME280;9945;46.010;8.946;2022-12-07T05:18:25;96892.78;;;4.89;84.33
19596;BME280;9945;46.010;8.946;2022-12-07T05:20:52;96894.56;;;4.88;85.86
19596;BME280;9945;46.010;8.946;2022-12-07T05:23:19;96891.03;;;4.89;85.50
19596;BME280;9945;46.010;8.946;2022-12-07T05:25:46;96895.16;;;4.81;84.50
19596;BME280;9945;46.010;8.946;2022-12-07T05:28:15;96888.09;;;4.83;83.86
19596;BME280;9945;46.010;8.946;2022-12-07T05:30:42;96896.34;;;4.77;85.42
19596;BME280;9945;46.010;8.946;2022-12-07T05:33:08;96897.53;;;4.73;86.11
19596;BME280;9945;46.010;8.946;2022-12-07T05:35:35;96894.38;;;4.58;86.17
19596;BME280;9945;46.010;8.946;2022-12-07T05:38:03;96894.50;;;4.68;86.87
19596;BME280;9945;46.010;8.946;2022-12-07T05:40:30;96893.06;;;4.75;86.29
19596;BME280;9945;46.010;8.946;2022-12-07T05:42:57;96894.00;;;4.74;85.76
19596;BME280;9945;46.010;8.946;2022-12-07T05:45:25;96896.81;;;4.71;87.07
19596;BME280;9945;46.010;8.946;2022-12-07T05:47:52;96896.13;;;4.69;87.13
19596;BME280;9945;46.010;8.946;2022-12-07T05:50:19;96896.47;;;4.64;87.30
19596;BME280;9945;46.010;8.946;2022-12-07T05:52:46;96902.59;;;4.63;86.16
19596;BME280;9945;46.010;8.946;2022-12-07T05:55:13;96894.94;;;4.62;86.40
19596;BME280;9945;46.010;8.946;2022-12-07T05:57:39;96898.25;;;4.64;87.94
19596;BME280;9945;46.010;8.946;2022-12-07T06:00:28;96902.00;;;4.71;87.44
19596;BME280;9945;46.010;8.946;2022-12-07T06:02:54;96903.88;;;4.69;86.82
19596;BME280;9945;46.010;8.946;2022-12-07T06:05:20;96904.97;;;4.66;86.51
19596;BME280;9945;46.010;8.946;2022-12-07T06:07:47;96899.78;;;4.66;86.56
19596;BME280;9945;46.010;8.946;2022-12-07T06:10:14;96900.47;;;4.68;86.67
19596;BME280;9945;46.010;8.946;2022-12-07T06:12:42;96899.19;;;4.63;87.08
19596;BME280;9945;46.010;8.946;2022-12-07T06:15:09;96901.31;;;4.57;86.73
19596;BME280;9945;46.010;8.946;2022-12-07T06:17:39;96907.56;;;4.55;88.11
19596;BME280;9945;46.010;8.946;2022-12-07T06:20:07;96913.81;;;4.52;87.83
19596;BME280;9945;46.010;8.946;2022-12-07T06:22:34;96909.44;;;4.53;86.77
19596;BME280;9945;46.010;8.946;2022-12-07T06:25:01;96912.97;;;4.52;87.33
19596;BME280;9945;46.010;8.946;2022-12-07T06:27:29;96911.22;;;4.52;88.07
19596;BME280;9945;46.010;8.946;2022-12-07T06:29:58;96912.75;;;4.55;87.31
19596;BME280;9945;46.010;8.946;2022-12-07T06:32:25;96907.22;;;4.48;87.75
19596;BME280;9945;46.010;8.946;2022-12-07T06:34:53;96911.09;;;4.43;89.13
19596;BME280;9945;46.010;8.946;2022-12-07T06:37:20;96907.81;;;4.41;90.33
19596;BME280;9945;46.010;8.946;2022-12-07T06:39:47;96907.09;;;4.50;89.83
19596;BME280;9945;46.010;8.946;2022-12-07T06:42:14;96910.75;;;4.59;87.85
19596;BME280;9945;46.010;8.946;2022-12-07T06:44:41;96910.75;;;4.59;86.74
19596;BME280;9945;46.010;8.946;2022-12-07T06:47:07;96908.16;;;4.47;89.20
19596;BME280;9945;46.010;8.946;2022-12-07T06:49:35;96913.81;;;4.52;88.98
19596;BME280;9945;46.010;8.946;2022-12-07T06:52:03;96909.66;;;4.61;87.33
19596;BME280;9945;46.010;8.946;2022-12-07T06:54:31;96910.59;;;4.60;88.20
19596;BME280;9945;46.010;8.946;2022-12-07T06:56:58;96908.38;;;4.55;88.44
19596;BME280;9945;46.010;8.946;2022-12-07T06:59:25;96910.88;;;4.57;87.51
19596;BME280;9945;46.010;8.946;2022-12-07T07:01:52;96904.59;;;4.60;87.77
19596;BME280;9945;46.010;8.946;2022-12-07T07:04:19;96909.66;;;4.61;88.07
19596;BME280;9945;46.010;8.946;2022-12-07T07:06:46;96909.56;;;4.63;88.15
19596;BME280;9945;46.010;8.946;2022-12-07T07:09:14;96909.34;;;4.66;87.46
19596;BME280;9945;46.010;8.946;2022-12-07T07:11:41;96910.50;;;4.73;86.12
19596;BME280;9945;46.010;8.946;2022-12-07T07:14:07;96913.81;;;4.75;87.08
19596;BME280;9945;46.010;8.946;2022-12-07T07:16:34;96908.84;;;4.72;87.16
19596;BME280;9945;46.010;8.946;2022-12-07T07:19:01;96920.97;;;4.71;86.59
19596;BME280;9945;46.010;8.946;2022-12-07T07:21:28;96926.88;;;4.73;86.79
19596;BME280;9945;46.010;8.946;2022-12-07T07:23:55;96923.34;;;4.74;86.80
19596;BME280;9945;46.010;8.946;2022-12-07T07:26:23;96923.47;;;4.73;86.93
19596;BME280;9945;46.010;8.946;2022-12-07T07:28:50;96925.94;;;4.74;86.64
19596;BME280;9945;46.010;8.946;2022-12-07T07:31:17;96927.22;;;4.80;85.78
19596;BME280;9945;46.010;8.946;2022-12-07T07:33:45;96927.09;;;4.81;85.84
19596;BME280;9945;46.010;8.946;2022-12-07T07:36:12;96929.22;;;4.87;84.27
19596;BME280;9945;46.010;8.946;2022-12-07T07:38:39;96929.00;;;4.90;85.91
19596;BME280;9945;46.010;8.946;2022-12-07T07:41:05;96936.50;;;4.93;84.54
19596;BME280;9945;46.010;8.946;2022-12-07T07:43:34;96935.22;;;4.99;84.72
19596;BME280;9945;46.010;8.946;2022-12-07T07:46:00;96934.84;;;5.04;84.14
19596;BME280;9945;46.010;8.946;2022-12-07T07:48:27;96935.31;;;5.09;83.23
19596;BME280;9945;46.010;8.946;2022-12-07T07:50:54;96927.28;;;5.12;83.31
19596;BME280;9945;46.010;8.946;2022-12-07T07:53:21;96937.88;;;5.20;82.74
19596;BME280;9945;46.010;8.946;2022-12-07T07:55:51;96933.41;;;5.22;82.66
19596;BME280;9945;46.010;8.946;2022-12-07T07:58:19;96938.59;;;5.22;82.51
19596;BME280;9945;46.010;8.946;2022-12-07T08:00:47;96934.56;;;5.29;81.36
19596;BME280;9945;46.010;8.946;2022-12-07T08:03:14;96943.97;;;5.41;81.67
19596;BME280;9945;46.010;8.946;2022-12-07T08:05:40;96937.53;;;5.56;80.90
19596;BME280;9945;46.010;8.946;2022-12-07T08:08:07;96937.81;;;5.74;80.53
19596;BME280;9945;46.010;8.946;2022-12-07T08:10:34;96937.06;;;5.83;79.46
19596;BME280;9945;46.010;8.946;2022-12-07T08:13:02;96938.91;;;6.03;78.59
19596;BME280;9945;46.010;8.946;2022-12-07T08:15:41;96943.19;;;6.14;77.95
19596;BME280;9945;46.010;8.946;2022-12-07T08:18:10;96934.56;;;6.34;77.46
19596;BME280;9945;46.010;8.946;2022-12-07T08:20:41;96934.78;;;6.52;75.97
19596;BME280;9945;46.010;8.946;2022-12-07T08:23:09;96942.50;;;6.63;74.71
19596;BME280;9945;46.010;8.946;2022-12-07T08:25:36;96938.09;;;6.94;72.23
19596;BME280;9945;46.010;8.946;2022-12-07T08:28:04;96939.31;;;7.69;68.04
19596;BME280;9945;46.010;8.946;2022-12-07T08:30:31;96944.06;;;9.60;62.20
19596;BME280;9945;46.010;8.946;2022-12-07T08:32:58;96946.47;;;13.59;47.41
19596;BME280;9945;46.010;8.946;2022-12-07T08:35:26;96952.94;;;12.94;45.40
19596;BME280;9945;46.010;8.946;2022-12-07T08:37:53;96941.03;;;11.11;50.91
19596;BME280;9945;46.010;8.946;2022-12-07T08:40:20;96946.25;;;10.43;53.63
19596;BME280;9945;46.010;8.946;2022-12-07T08:42:48;96952.00;;;11.57;50.50
19596;BME280;9945;46.010;8.946;2022-12-07T08:45:17;96960.41;;;16.26;40.83
19596;BME280;9945;46.010;8.946;2022-12-07T08:47:46;96959.88;;;19.66;33.48
19596;BME280;9945;46.010;8.946;2022-12-07T08:50:15;96962.53;;;22.01;29.04
19596;BME280;9945;46.010;8.946;2022-12-07T08:52:48;96965.88;;;22.91;26.81
19596;BME280;9945;46.010;8.946;2022-12-07T08:55:15;96965.75;;;23.85;25.81
19596;BME280;9945;46.010;8.946;2022-12-07T08:57:42;96966.56;;;24.42;24.42
19596;BME280;9945;46.010;8.946;2022-12-07T09:00:10;96968.09;;;25.82;23.39
19596;BME280;9945;46.010;8.946;2022-12-07T09:02:37;96971.66;;;25.87;22.63
19596;BME280;9945;46.010;8.946;2022-12-07T09:05:04;96971.03;;;26.56;22.45
19596;BME280;9945;46.010;8.946;2022-12-07T09:07:32;96961.88;;;27.63;21.46
19596;BME280;9945;46.010;8.946;2022-12-07T09:10:02;96963.50;;;26.90;21.78
19596;BME280;9945;46.010;8.946;2022-12-07T09:12:29;96964.00;;;27.56;21.19
19596;BME280;9945;46.010;8.946;2022-12-07T09:14:56;96967.78;;;28.73;19.62
19596;BME280;9945;46.010;8.946;2022-12-07T09:17:23;96962.66;;;28.66;18.55
19596;BME280;9945;46.010;8.946;2022-12-07T09:19:50;96956.91;;;29.59;17.90
19596;BME280;9945;46.010;8.946;2022-12-07T09:22:17;96962.91;;;30.10;18.56
19596;BME280;9945;46.010;8.946;2022-12-07T09:24:44;96955.25;;;30.27;18.25
19596;BME280;9945;46.010;8.946;2022-12-07T09:27:13;96958.72;;;31.01;17.38
19596;BME280;9945;46.010;8.946;2022-12-07T09:29:41;96964.75;;;30.93;17.23
19596;BME280;9945;46.010;8.946;2022-12-07T09:32:08;96961.03;;;30.05;17.68
19596;BME280;9945;46.010;8.946;2022-12-07T09:34:35;96954.53;;;31.42;16.79
19596;BME280;9945;46.010;8.946;2022-12-07T09:37:02;96966.69;;;30.48;17.44
19596;BME280;9945;46.010;8.946;2022-12-07T09:39:29;96965.88;;;33.04;15.53
19596;BME280;9945;46.010;8.946;2022-12-07T09:41:57;96957.22;;;31.71;16.04
19596;BME280;9945;46.010;8.946;2022-12-07T09:44:27;96955.38;;;31.67;16.06
19596;BME280;9945;46.010;8.946;2022-12-07T09:46:55;96958.53;;;31.74;16.04
19596;BME280;9945;46.010;8.946;2022-12-07T09:49:23;96958.78;;;32.39;15.97
19596;BME280;9945;46.010;8.946;2022-12-07T09:52:01;96966.38;;;32.55;15.18
19596;BME280;9945;46.010;8.946;2022-12-07T09:54:29;96963.13;;;33.37;15.20
19596;BME280;9945;46.010;8.946;2022-12-07T09:56:57;96957.25;;;32.84;15.49
19596;BME280;9945;46.010;8.946;2022-12-07T09:59:26;96957.09;;;33.95;14.78
19596;BME280;9945;46.010;8.946;2022-12-07T10:01:53;96962.28;;;34.32;14.24
19596;BME280;9945;46.010;8.946;2022-12-07T10:04:22;96960.59;;;33.27;14.59
19596;BME280;9945;46.010;8.946;2022-12-07T10:06:50;96966.53;;;32.83;15.05
19596;BME280;9945;46.010;8.946;2022-12-07T10:09:19;96963.63;;;33.53;14.73
19596;BME280;9945;46.010;8.946;2022-12-07T10:12:03;96966.56;;;34.83;13.73
19596;BME280;9945;46.010;8.946;2022-12-07T10:14:34;96971.06;;;35.41;14.28
19596;BME280;9945;46.010;8.946;2022-12-07T10:17:01;96954.59;;;33.57;14.91
19596;BME280;9945;46.010;8.946;2022-12-07T10:19:30;96964.47;;;35.33;13.64
19596;BME280;9945;46.010;8.946;2022-12-07T10:22:13;96952.63;;;33.17;15.75
19596;BME280;9945;46.010;8.946;2022-12-07T10:24:41;96951.38;;;31.83;16.27
19596;BME280;9945;46.010;8.946;2022-12-07T10:27:19;96952.28;;;33.51;15.08
19596;BME280;9945;46.010;8.946;2022-12-07T10:29:51;96958.22;;;33.94;15.32
19596;BME280;9945;46.010;8.946;2022-12-07T10:32:30;96944.94;;;32.21;16.09
19596;BME280;9945;46.010;8.946;2022-12-07T10:35:19;96942.53;;;31.96;16.63
19596;BME280;9945;46.010;8.946;2022-12-07T10:37:47;96898.78;;;30.21;18.21
19596;BME280;9945;46.010;8.946;2022-12-07T10:40:26;96895.69;;;32.14;16.67
19596;BME280;9945;46.010;8.946;2022-12-07T10:43:01;96887.75;;;32.37;16.90
19596;BME280;9945;46.010;8.946;2022-12-07T10:45:30;96883.28;;;31.23;17.33
19596;BME280;9945;46.010;8.946;2022-12-07T10:48:02;96888.94;;;30.98;17.75
19596;BME280;9945;46.010;8.946;2022-12-07T10:50:46;96885.63;;;29.60;19.12
19596;BME280;9945;46.010;8.946;2022-12-07T10:53:38;96871.47;;;26.67;21.37
19596;BME280;9945;46.010;8.946;2022-12-07T10:56:42;96869.34;;;26.74;21.35
19596;BME280;9945;46.010;8.946;2022-12-07T11:02:49;96861.34;;;25.84;22.66
19596;BME280;9945;46.010;8.946;2022-12-07T11:05:26;96857.38;;;26.18;22.33
19596;BME280;9945;46.010;8.946;2022-12-07T11:08:02;96864.44;;;27.61;20.60
19596;BME280;9945;46.010;8.946;2022-12-07T11:10:37;96861.47;;;26.63;21.40
19596;BME280;9945;46.010;8.946;2022-12-07T11:13:19;96848.78;;;26.21;22.03
19596;BME280;9945;46.010;8.946;2022-12-07T11:16:07;96847.44;;;26.51;21.76
19596;BME280;9945;46.010;8.946;2022-12-07T11:18:46;96849.59;;;25.63;22.28
19596;BME280;9945;46.010;8.946;2022-12-07T11:21:20;96839.28;;;26.35;21.89
19596;BME280;9945;46.010;8.946;2022-12-07T11:23:59;96839.97;;;27.67;20.96
19596;BME280;9945;46.010;8.946;2022-12-07T11:26:39;96843.19;;;29.06;19.66
19596;BME280;9945;46.010;8.946;2022-12-07T11:29:21;96833.25;;;28.91;19.38
19596;BME280;9945;46.010;8.946;2022-12-07T11:31:59;96836.53;;;28.63;19.71
19596;BME280;9945;46.010;8.946;2022-12-07T11:34:37;96824.94;;;28.42;20.34
19596;BME280;9945;46.010;8.946;2022-12-07T11:37:09;96822.22;;;28.78;20.10
19596;BME280;9945;46.010;8.946;2022-12-07T11:39:41;96823.81;;;29.58;17.87
19596;BME280;9945;46.010;8.946;2022-12-07T11:42:16;96818.16;;;28.90;19.79
19596;BME280;9945;46.010;8.946;2022-12-07T11:44:50;96813.34;;;27.91;19.35
19596;BME280;9945;46.010;8.946;2022-12-07T11:47:25;96813.69;;;27.12;19.52
19596;BME280;9945;46.010;8.946;2022-12-07T11:50:03;96810.66;;;27.91;18.61
19596;BME280;9945;46.010;8.946;2022-12-07T11:52:43;96811.97;;;28.75;18.71
19596;BME280;9945;46.010;8.946;2022-12-07T11:55:18;96806.91;;;28.12;19.13
19596;BME280;9945;46.010;8.946;2022-12-07T11:57:51;96811.59;;;29.17;17.72
19596;BME280;9945;46.010;8.946;2022-12-07T12:00:21;96804.97;;;28.58;19.29
19596;BME280;9945;46.010;8.946;2022-12-07T12:02:53;96808.13;;;29.01;19.04
19596;BME280;9945;46.010;8.946;2022-12-07T12:05:25;96802.88;;;29.30;18.99
19596;BME280;9945;46.010;8.946;2022-12-07T12:07:59;96806.31;;;28.91;18.81
19596;BME280;9945;46.010;8.946;2022-12-07T12:10:37;96802.81;;;28.81;18.22
19596;BME280;9945;46.010;8.946;2022-12-07T12:13:20;96797.00;;;27.10;20.24
19596;BME280;9945;46.010;8.946;2022-12-07T12:16:08;96790.72;;;27.82;19.94
19596;BME280;9945;46.010;8.946;2022-12-07T12:18:58;96793.72;;;27.96;19.20
19596;BME280;9945;46.010;8.946;2022-12-07T12:21:32;96789.38;;;28.45;19.70
19596;BME280;9945;46.010;8.946;2022-12-07T12:24:04;96790.72;;;28.53;19.56
19596;BME280;9945;46.010;8.946;2022-12-07T12:26:37;96799.50;;;27.37;19.73
19596;BME280;9945;46.010;8.946;2022-12-07T12:29:06;96786.88;;;27.37;20.43
19596;BME280;9945;46.010;8.946;2022-12-07T12:31:48;96781.72;;;27.31;20.35
19596;BME280;9945;46.010;8.946;2022-12-07T12:34:37;96776.81;;;26.55;21.16
19596;BME280;9945;46.010;8.946;2022-12-07T12:37:41;96776.59;;;26.62;21.13
19596;BME280;9945;46.010;8.946;2022-12-07T12:40:41;96774.16;;;26.23;21.69
19596;BME280;9945;46.010;8.946;2022-12-07T12:46:48;96771.91;;;27.87;20.14
19596;BME280;9945;46.010;8.946;2022-12-07T12:49:34;96773.22;;;28.10;19.69
19596;BME280;9945;46.010;8.946;2022-12-07T12:55:30;96764.09;;;28.36;20.59
19596;BME280;9945;46.010;8.946;2022-12-07T12:58:43;96758.16;;;27.99;21.14
19596;BME280;9945;46.010;8.946;2022-12-07T13:01:44;96754.41;;;26.87;21.63
19596;BME280;9945;46.010;8.946;2022-12-07T13:04:47;96750.06;;;27.73;21.02
19596;BME280;9945;46.010;8.946;2022-12-07T13:07:50;96747.59;;;28.63;19.41
19596;BME280;9945;46.010;8.946;2022-12-07T13:10:28;96752.41;;;28.71;20.26
19596;BME280;9945;46.010;8.946;2022-12-07T13:12:59;96748.38;;;28.64;20.15
19596;BME280;9945;46.010;8.946;2022-12-07T13:15:35;96742.97;;;28.74;19.95
19596;BME280;9945;46.010;8.946;2022-12-07T13:20:51;96738.03;;;28.96;20.19
19596;BME280;9945;46.010;8.946;2022-12-07T13:23:21;96735.94;;;28.88;20.00
19596;BME280;9945;46.010;8.946;2022-12-07T13:26:09;96728.84;;;27.87;19.85
19596;BME280;9945;46.010;8.946;2022-12-07T13:28:41;96732.19;;;27.01;21.47
19596;BME280;9945;46.010;8.946;2022-12-07T13:33:55;96722.34;;;25.81;22.30
19596;BME280;9945;46.010;8.946;2022-12-07T13:36:23;96719.06;;;26.53;21.83
19596;BME280;9945;46.010;8.946;2022-12-07T13:38:53;96717.41;;;25.41;22.99
19596;BME280;9945;46.010;8.946;2022-12-07T13:41:22;96717.91;;;24.24;23.94
19596;BME280;9945;46.010;8.946;2022-12-07T13:43:53;96710.59;;;22.67;26.64
19596;BME280;9945;46.010;8.946;2022-12-07T13:46:33;96708.72;;;21.28;29.04
19596;BME280;9945;46.010;8.946;2022-12-07T13:49:02;96705.44;;;19.68;30.25
19596;BME280;9945;46.010;8.946;2022-12-07T13:51:34;96703.88;;;18.98;31.04
19596;BME280;9945;46.010;8.946;2022-12-07T13:54:09;96704.94;;;18.39;31.80